プーケット国際空港の過去48時間の天気

プーケット国際空港 (Phuket Airport)

現在時刻: 10/2 00:00 +07 (10/1 17:00 UTC) 以下の時間は現地時間です。

過去48時間のMETAR気象情報
時間 風向 風速(m/s) 視程 気温(℃) 湿度(%) 気圧(hPa) 天気現象
1 23:30 西北西 5 10km以上 27 74 1009
1 23:00 西北西 4 10km以上 26 79 1009
1 22:30 西 5 10km以上 26 79 1009 弱い雨
1 22:00 西 2 10km以上 25 89 1009
1 21:30 西北西 3 10km以上 25 83 1009
1 21:00 西北西 5 10km以上 25 83 1009
1 20:30 西 6 9000m 25 89 1009 弱い雨
1 20:00 西 8 3500m 24 94 1009
1 19:30 西 2 10km以上 25 89 1008 周辺でしゅう雨
1 19:00 西 2 10km以上 24 94 1008 弱い雨
1 18:30 不定 2 10km以上 24 94 1007
1 18:00 北北西 2 10km以上 24 94 1006 弱い雨
1 17:30 不定 2 10km以上 24 94 1006 弱い雨
1 17:00 不定 2 9000m 24 94 1006 弱い雨
1 16:30 北西 5 7000m 24 94 1006 弱い雨
1 16:00 西北西 7 4100m 25 89 1007
1 15:30 西北西 6 10km以上 30 70 1006 周辺でしゅう雨
1 15:00 西北西 5 10km以上 30 70 1006
1 14:30 西北西 4 10km以上 31 70 1007
1 14:00 西 5 10km以上 31 70 1007
1 13:30 西 4 10km以上 31 70 1007
1 13:00 西 4 10km以上 31 66 1007
1 12:30 西 4 10km以上 31 70 1008
1 12:00 西 5 10km以上 31 70 1009
1 11:30 西 4 10km以上 30 75 1009
1 11:00 西 4 10km以上 30 75 1009 周辺でしゅう雨
1 10:30 西 4 10km以上 30 75 1010
1 10:00 西 3 10km以上 30 75 1010
1 09:30 西 3 10km以上 30 75 1009
1 09:00 西北西 3 10km以上 30 75 1009
1 08:30 西 3 10km以上 30 75 1008
1 08:00 南西 2 10km以上 28 79 1008
1 07:30 不定 1 10km以上 27 89 1008
1 07:00 静穏 0 10km以上 26 94 1008
1 06:30 静穏 0 10km以上 26 94 1007
1 06:00 静穏 0 10km以上 26 94 1007
1 05:30 2 10km以上 26 94 1006
1 05:00 西北西 2 10km以上 27 84 1007
1 04:30 西 2 10km以上 27 89 1006
1 04:00 西 2 10km以上 27 84 1006
1 03:30 西北西 2 10km以上 26 89 1006
1 03:00 静穏 0 10km以上 26 94 1006
1 02:30 静穏 0 10km以上 26 94 1006
1 02:00 静穏 0 10km以上 26 94 1007
1 01:30 静穏 0 10km以上 26 94 1007
1 01:00 静穏 0 10km以上 26 94 1008
1 00:30 静穏 0 10km以上 26 94 1008
1 00:00 北西 2 10km以上 26 89 1009
30 23:30 西北西 2 10km以上 27 84 1009
30 22:30 西 3 10km以上 28 84 1009
30 22:00 西北西 2 10km以上 27 84 1009
30 21:30 北西 2 10km以上 27 84 1009
30 21:00 北西 2 10km以上 27 84 1008
30 20:30 西北西 2 10km以上 28 79 1008
30 20:00 北西 2 10km以上 28 79 1007
30 19:30 西北西 2 10km以上 28 79 1007
30 19:00 西北西 2 10km以上 28 79 1006
30 18:30 西北西 2 10km以上 28 84 1006
30 18:00 西北西 3 10km以上 28 79 1005
30 17:30 西 4 10km以上 29 74 1005
30 17:00 西 4 10km以上 30 70 1005
30 16:30 西 5 10km以上 30 75 1005
30 16:00 西 4 10km以上 30 70 1005
30 15:30 西 4 10km以上 30 70 1006
30 15:00 西 4 10km以上 30 70 1006
30 14:30 西 5 10km以上 31 70 1006
30 14:00 西 5 10km以上 31 66 1007
30 13:30 西北西 4 10km以上 31 70 1007
30 13:00 西 3 10km以上 31 66 1008
30 12:30 西 4 10km以上 31 66 1008
30 12:00 西 3 10km以上 31 66 1009
30 11:30 西 3 10km以上 30 70 1009
30 11:00 西 3 10km以上 30 70 1010
30 10:30 西 3 10km以上 30 75 1010
30 10:00 西 3 10km以上 30 75 1010
30 09:30 西 3 10km以上 30 75 1010
30 09:00 西北西 3 10km以上 29 79 1010
30 08:30 不定 1 10km以上 29 79 1009
30 08:00 不定 1 10km以上 29 79 1009 周辺でしゅう雨
30 07:30 不定 1 10km以上 26 94 1009
30 07:00 静穏 0 10km以上 25 100 1008
30 06:30 不定 1 10km以上 24 100 1008
30 06:00 静穏 0 10km以上 24 100 1008
30 05:30 不定 1 10km以上 24 100 1007
30 05:00 静穏 0 10km以上 24 100 1007
30 04:30 静穏 0 10km以上 24 100 1007
30 04:00 静穏 0 10km以上 24 100 1007
30 03:30 不定 1 10km以上 25 94 1007
30 03:00 静穏 0 10km以上 25 94 1007
30 02:30 不定 1 10km以上 25 94 1007
30 02:00 静穏 0 10km以上 25 94 1008
30 01:30 不定 1 10km以上 25 94 1008
30 01:00 不定 1 10km以上 25 94 1008
30 00:30 不定 1 10km以上 25 100 1009
VTSP 011630Z 30010KT 9999 FEW020 BKN100 27/22 Q1009 NOSIG
VTSP 011600Z 30007KT 9999 FEW020 BKN100 26/22 Q1009 NOSIG
VTSP 011530Z 28009KT 9999 -RA FEW020 BKN100 26/22 Q1009 NOSIG
VTSP 011500Z 27004KT 240V300 9999 FEW020 BKN100 25/23 Q1009 NOSIG
VTSP 011430Z 30006KT 270V330 9999 FEW018 BKN100 25/22 Q1009 NOSIG
VTSP 011400Z 29009KT 9999 FEW018 BKN100 25/22 Q1009 NOSIG
VTSP 011330Z 28011KT 9000 -RA FEW018 BKN100 25/23 Q1009 RERA NOSIG
VTSP 011300Z 28015KT 260V330 3500 RA FEW010CB BKN020 OVC100 24/23 Q1009 WS ALL RWY BECMG TL1315 7000 NSW
VTSP 011230Z 26003KT 230V290 9999 VCSH FEW018TCU BKN100 25/23 Q1008 TEMPO FM1245 TL1315 28015G30KT 3000 RA
VTSP 011200Z 28004KT 230V310 9999 -RA FEW020 BKN100 24/23 Q1008 NOSIG
VTSP 011130Z VRB03KT 9999 FEW020 BKN100 24/23 Q1007 NOSIG
VTSP 011100Z 34003KT 270V050 9999 -RA FEW020 BKN100 24/23 Q1006 NOSIG
VTSP 011030Z VRB03KT 9999 -RA FEW020 BKN100 24/23 Q1006 NOSIG
VTSP 011000Z VRB04KT 9000 -RA FEW010CB SCT020 BKN100 24/23 Q1006 NOSIG
VTSP 010930Z 31010G24KT 220V020 7000 3000NW -RA FEW008CB BKN020 24/23 Q1006 RERA NOSIG
VTSP 010900Z 30013G28KT 270V020 4100 RA FEW008CB OVC020 25/23 Q1007 WS ALL RWY BECMG TL0930 8000 NSW
VTSP 010830Z 29011KT 270V330 9999 VCSH FEW018TCU SCT020 BKN100 30/24 Q1006 TEMPO FM0900 TL1000 30015G30KT 3000 RA
VTSP 010800Z 29009KT 260V320 9999 FEW020 BKN100 30/24 Q1006 NOSIG
VTSP 010730Z 29008KT 250V320 9999 FEW020 SCT100 31/25 Q1007 NOSIG
VTSP 010700Z 28009KT 250V310 9999 FEW020 SCT100 31/25 Q1007 NOSIG
VTSP 010630Z 27008KT 240V320 9999 FEW018TCU SCT100 31/25 Q1007 NOSIG
VTSP 010600Z 28007KT 250V320 9999 FEW018TCU SCT100 31/24 Q1007 NOSIG
VTSP 010530Z 27007KT 230V330 9999 FEW018TCU SCT020 31/25 Q1008 NOSIG
VTSP 010500Z 27009KT 230V300 9999 FEW018TCU SCT020 31/25 Q1009 NOSIG
VTSP 010430Z 26008KT 9999 FEW018TCU SCT020 30/25 Q1009 NOSIG
VTSP 010400Z 27007KT 220V290 9999 VCSH FEW018TCU SCT020 30/25 Q1009 NOSIG
VTSP 010330Z 27007KT 220V320 9999 SCT020 30/25 Q1010 NOSIG
VTSP 010300Z 27006KT 230V310 9999 SCT020 30/25 Q1010 NOSIG
VTSP 010230Z 27006KT 240V310 9999 SCT020 30/25 Q1009 NOSIG
VTSP 010200Z 30006KT 270V330 9999 FEW020 SCT100 30/25 Q1009 NOSIG
VTSP 010130Z 27005KT 240V320 9999 FEW020 SCT100 30/25 Q1008 NOSIG
VTSP 010100Z 23003KT 190V280 9999 FEW020 SCT100 28/24 Q1008 NOSIG
VTSP 010030Z VRB01KT 9999 SCT020 27/25 Q1008 NOSIG
VTSP 010000Z 00000KT 9999 SCT020 26/25 Q1008 NOSIG
VTSP 302330Z 00000KT 9999 SCT020 26/25 Q1007 NOSIG
VTSP 302300Z 00000KT 9999 FEW020 26/25 Q1007 NOSIG
VTSP 302230Z 10003KT 9999 FEW020 26/25 Q1006 NOSIG
VTSP 302200Z 29004KT 9999 FEW020 27/24 Q1007 NOSIG
VTSP 302130Z 27003KT 210V310 9999 FEW020 27/25 Q1006 NOSIG
VTSP 302100Z 27003KT 210V320 9999 SCT020 27/24 Q1006 NOSIG
VTSP 302030Z 30004KT 9999 SCT020 26/24 Q1006 NOSIG
VTSP 302000Z 00000KT 9999 FEW020 26/25 Q1006 NOSIG
VTSP 301930Z 00000KT 9999 SCT020 26/25 Q1006 NOSIG
VTSP 301900Z 00000KT 9999 SCT020 26/25 Q1007 NOSIG
VTSP 301830Z 00000KT 9999 SCT020 26/25 Q1007 NOSIG
VTSP 301800Z 00000KT 9999 SCT020 26/25 Q1008 NOSIG
VTSP 301730Z 00000KT 9999 SCT020 26/25 Q1008 NOSIG
VTSP 301700Z 32003KT 270V340 9999 FEW020 26/24 Q1009 NOSIG
VTSP 301630Z 30003KT 270V330 9999 FEW020 SCT100 27/24 Q1009 NOSIG
VTSP 301530Z 28005KT 9999 FEW020 SCT100 28/25 Q1009 NOSIG
VTSP 301500Z 30004KT 9999 FEW020 SCT100 27/24 Q1009 NOSIG
VTSP 301430Z 31004KT 9999 FEW020 SCT100 27/24 Q1009 NOSIG
VTSP 301400Z 31004KT 9999 FEW020 SCT100 27/24 Q1008 NOSIG
VTSP 301330Z 30003KT 270V330 9999 FEW020 SCT100 28/24 Q1008 NOSIG
VTSP 301300Z 31004KT 280V340 9999 BKN020 28/24 Q1007 NOSIG
VTSP 301230Z 29004KT 9999 BKN020 28/24 Q1007 NOSIG
VTSP 301200Z 30004KT 9999 SCT020 28/24 Q1006 NOSIG
VTSP 301130Z 30004KT 9999 SCT020 28/25 Q1006 NOSIG
VTSP 301100Z 29005KT 9999 FEW020 28/24 Q1005 NOSIG
VTSP 301030Z 28007KT 9999 FEW020 29/24 Q1005 NOSIG
VTSP 301000Z 28007KT 260V320 9999 FEW020 30/24 Q1005 NOSIG
VTSP 300930Z 28009KT 250V310 9999 FEW020 30/25 Q1005 NOSIG
VTSP 300900Z 27008KT 240V310 9999 FEW020 30/24 Q1005 NOSIG
VTSP 300830Z 26008KT 230V300 9999 FEW020 30/24 Q1006 NOSIG
VTSP 300800Z 28007KT 240V320 9999 FEW020 30/24 Q1006 NOSIG
VTSP 300730Z 27009KT 9999 FEW020 31/25 Q1006 NOSIG
VTSP 300700Z 27009KT 9999 FEW020 31/24 Q1007 NOSIG
VTSP 300630Z 29008KT 250V320 9999 FEW020 31/25 Q1007 NOSIG
VTSP 300600Z 28006KT 240V340 9999 FEW020 31/24 Q1008 NOSIG
VTSP 300530Z 26008KT 230V290 9999 FEW020 31/24 Q1008 NOSIG
VTSP 300500Z 28006KT 220V330 9999 FEW020 31/24 Q1009 NOSIG
VTSP 300430Z 28006KT 240V300 9999 FEW020 30/24 Q1009 NOSIG
VTSP 300400Z 28006KT 250V320 9999 FEW020 30/24 Q1010 NOSIG
VTSP 300330Z 26005KT 210V300 9999 FEW020 30/25 Q1010 NOSIG
VTSP 300300Z 26005KT 230V300 9999 FEW020 30/25 Q1010 NOSIG
VTSP 300230Z 27005KT 210V330 9999 FEW020 30/25 Q1010 NOSIG
VTSP 300200Z 29005KT 250V330 9999 FEW018TCU 29/25 Q1010 NOSIG
VTSP 300130Z VRB01KT 9999 FEW018TCU 29/25 Q1009 NOSIG
VTSP 300100Z VRB01KT 9999 VCSH FEW018TCU 29/25 Q1009 NOSIG
VTSP 300030Z VRB02KT 9999 FEW020 26/25 Q1009 NOSIG
VTSP 300000Z 00000KT 9999 SCT020 25/25 Q1008 NOSIG
VTSP 292330Z VRB01KT 9999 SCT020 24/24 Q1008 NOSIG
VTSP 292300Z 00000KT 9999 FEW020 24/24 Q1008 NOSIG
VTSP 292230Z VRB02KT 9999 FEW020 24/24 Q1007 NOSIG
VTSP 292200Z 00000KT 9999 FEW020 24/24 Q1007 NOSIG
VTSP 292130Z 00000KT 9999 FEW020 24/24 Q1007 NOSIG
VTSP 292100Z 00000KT 9999 FEW020 24/24 Q1007 NOSIG
VTSP 292030Z VRB01KT 9999 FEW020 25/24 Q1007 NOSIG
VTSP 292000Z 00000KT 9999 FEW020 25/24 Q1007 NOSIG
VTSP 291930Z VRB01KT 9999 FEW020 25/24 Q1007 NOSIG
VTSP 291900Z 00000KT 9999 FEW020 25/24 Q1008 NOSIG
VTSP 291830Z VRB01KT 9999 FEW020 25/24 Q1008 NOSIG
VTSP 291800Z VRB01KT 9999 FEW020 25/24 Q1008 NOSIG
VTSP 291730Z VRB01KT 9999 FEW020 25/25 Q1009 NOSIG